Dirección General De Aeronáutica Civil

Dirección Meteorológica de Chile - Servicios Climáticos

Informe General de Control de Calidad de la Estación

Listado de niveles de control de calidad para algunos parámetros
Estación Peldehue Ad. (330163)
Fecha de Revisión de los datos :

Elementos

Registros Niveles de Control Total
Nivel 0 Nivel 1 Nivel 2 Nivel 3 Errores Porcentaje
01 Temperatura del Aire Seco 38.699 0 . 0 . 0 . 0 . 0 0.00 %
02 Temperatura de Rocío 38.713 0 . 0 . 0 . 0 . 0 0.00 %
03 Humedad Relativa del Aire 38.595 0 . 0 . 0 . 0 . 0 0.00 %
04 Temperatura Máxima PM 1.603 0 . 0 . 11 0.69 % 0 . 11 0.69 %
05 Temperatura Mínima AM 1.599 0 . 0 . 16 1.00 % 0 . 16 1.00 %
06 Viento a 10 m. de Altura 38.650 0 . 0 . 4 0.01 % 0 . 4 0.01 %
07 Agua Caida, Acumulada 6 Horas 6.423 0 . 0 . 0 . 0 . 0 0.00 %
08 Presión Atm. a Nivel de Estación (QFE) 38.602 0 . 0 . 0 . 0 . 0 0.00 %
09 Presión Atm. a Nivel Medio del Mar (QFF) 38.602 0 . 0 . 0 . 0 . 0 0.00 %
10 Presión Atm. Estándar OACI (QNH) 38.828 0 . 0 . 0 . 0 . 0 0.00 %

Totales

280.314 . 0.0000 % . 0.0000 % . 0.0111 % . 0.0000 % 31 0.0111 %

Detalle de Errores Recientes

Fecha del Dato Descripción Información Error Fecha Ingreso
2024-05-23 00:00:00 Temperatura 10.3 del 22-05-2024 14:00, Mayor que la Máxima 6.2 23-05-2024 00:00 10.3 -- 6.2 2024-05-23 00:09:00
2024-06-21 00:00:00 Temperatura 13.9 del 20-06-2024 17:00, Mayor que la Máxima 8.5 21-06-2024 00:00 13.9 -- 8.5 2024-06-21 00:10:00
Total de Errores Recientes 2

Detalle de Errores Encontrados

Nivel Fecha del Dato Descripción Información Error Fecha Ingreso
2 2020-05-04 12:00:00 Temperatura 10.6 del 04-05-2020 12:00, Menor que la Mínima 10.7 04-05-2020 12:00 10.6 -- 10.7 2021-12-22 13:51:00
2 2020-06-05 12:00:00 Temperatura -1.4 del 05-06-2020 12:00, Menor que la Mínima -1.3 05-06-2020 12:00 -1.4 -- -1.3 2021-12-22 13:53:00
2 2020-07-27 12:00:00 Temperatura 5.9 del 27-07-2020 12:00, Menor que la Mínima 6.0 27-07-2020 12:00 5.9 -- 6.0 2021-12-22 13:56:00
2 2020-08-01 12:00:00 Temperatura 8.0 del 01-08-2020 12:00, Menor que la Mínima 8.3 01-08-2020 12:00 8.0 -- 8.3 2021-12-22 13:57:00
2 2021-06-21 12:00:00 Temperatura -0.2 del 21-06-2021 12:00, Menor que la Mínima 0.1 21-06-2021 12:00 -0.2 -- 0.1 2021-12-22 14:16:00
2 2021-06-26 12:00:00 Temperatura 5.5 del 26-06-2021 12:00, Menor que la Mínima 5.6 26-06-2021 12:00 5.5 -- 5.6 2021-12-22 14:16:00
2 2021-06-27 12:00:00 Temperatura -1.2 del 27-06-2021 12:00, Menor que la Mínima -1.1 27-06-2021 12:00 -1.2 -- -1.1 2021-12-22 14:16:00
2 2021-07-12 12:00:00 Temperatura 0.4 del 12-07-2021 12:00, Menor que la Mínima 0.5 12-07-2021 12:00 0.4 -- 0.5 2021-12-22 14:17:00
2 2021-08-03 12:00:00 Temperatura 1.4 del 03-08-2021 12:00, Menor que la Mínima 1.6 03-08-2021 12:00 1.4 -- 1.6 2021-12-22 14:19:00
2 2021-08-12 12:00:00 Temperatura -1.5 del 12-08-2021 12:00, Menor que la Mínima -1.4 12-08-2021 12:00 -1.5 -- -1.4 2021-12-22 14:19:00
2 2022-02-02 12:00:00 Temperatura 13.2 del 02-02-2022 10:00, Menor que la Mínima 17.2 02-02-2022 12:00 13.2 -- 17.2 2022-02-02 11:53:00
2 2022-06-19 12:00:00 Temperatura 4.0 del 19-06-2022 12:00, Menor que la Mínima 4.1 19-06-2022 12:00 4.0 -- 4.1 2022-06-19 12:09:00
2 2022-07-23 12:00:00 Temperatura 3.9 del 23-07-2022 12:00, Menor que la Mínima 4.0 23-07-2022 12:00 3.9 -- 4.0 2022-07-23 12:09:00
2 2022-12-13 12:00:00 Temperatura 13.3 del 13-12-2022 09:00, Menor que la Mínima 23.9 13-12-2022 12:00 13.3 -- 23.9 2022-12-13 11:54:00
2 2023-03-06 12:00:00 Temperatura 14.7 del 06-03-2023 10:00, Menor que la Mínima 15.8 06-03-2023 12:00 14.7 -- 15.8 2023-03-06 11:55:00
2 2023-07-16 12:00:00 Temperatura 2.8 del 16-07-2023 12:00, Menor que la Mínima 3.0 16-07-2023 12:00 2.8 -- 3.0 2023-07-16 12:08:00
2 2021-09-12 00:00:00 Temperatura 14.6 del 12-09-2021 00:00, Mayor que la Máxima 14.5 12-09-2021 00:00 14.6 -- 14.5 2021-12-22 14:20:00
2 2021-12-31 00:00:00 Temperatura 30.9 del 30-12-2021 20:00, Mayor que la Máxima 25.1 31-12-2021 00:00 30.9 -- 25.1 2021-12-30 23:54:00
2 2022-01-03 00:00:00 Temperatura 31.4 del 02-01-2022 20:00, Mayor que la Máxima 31.3 03-01-2022 00:00 31.4 -- 31.3 2022-01-02 23:56:00
2 2022-02-17 00:00:00 Temperatura 34.1 del 16-02-2022 19:00, Mayor que la Máxima 34.0 17-02-2022 00:00 34.1 -- 34.0 2022-02-17 00:36:00
2 2022-06-24 00:00:00 Temperatura 12.8 del 23-06-2022 20:00, Mayor que la Máxima 11.6 24-06-2022 00:00 12.8 -- 11.6 2022-06-24 23:55:00
2 2023-06-21 00:00:00 Temperatura 15.8 del 20-06-2023 19:00, Mayor que la Máxima 13.4 21-06-2023 00:00 15.8 -- 13.4 2023-06-21 00:08:00
2 2023-08-23 00:00:00 Temperatura 16.5 del 22-08-2023 16:00, Mayor que la Máxima 12.5 23-08-2023 00:00 16.5 -- 12.5 2023-08-23 00:09:00
2 2023-08-29 00:00:00 Temperatura 16.3 del 28-08-2023 16:00, Mayor que la Máxima 15.7 29-08-2023 00:00 16.3 -- 15.7 2023-08-29 00:09:00
2 2023-11-27 00:00:00 Temperatura 31.1 del 26-11-2023 17:00, Mayor que la Máxima 31.0 27-11-2023 00:00 31.1 -- 31.0 2023-11-26 23:52:00
2 2024-05-23 00:00:00 Temperatura 10.3 del 22-05-2024 14:00, Mayor que la Máxima 6.2 23-05-2024 00:00 10.3 -- 6.2 2024-05-23 00:09:00
2 2024-06-21 00:00:00 Temperatura 13.9 del 20-06-2024 17:00, Mayor que la Máxima 8.5 21-06-2024 00:00 13.9 -- 8.5 2024-06-21 00:10:00
2 2022-07-23 19:00:00 Variación horaria de Intensidad del viento fuera de rango (1 hora Antes) 60 - 2 2022-07-23 18:53:00
2 2022-07-23 20:00:00 Variación horaria de Intensidad del viento fuera de rango (1 hora Antes) 8 - 60 2022-07-23 19:53:00
2 2022-07-31 15:00:00 Variación horaria de Intensidad del viento fuera de rango (1 hora Antes) 50 - 2 2022-07-31 14:54:00
2 2022-07-31 16:00:00 Variación horaria de Intensidad del viento fuera de rango (1 hora Antes) 2 - 50 2022-07-31 15:52:00
Errores del Nivel 31
Informe generado el 13-07-2024 04:34
Requerimiento: RE6001